createdAt,value
2019-01-19T00:00:27.155Z,2.36
2019-01-19T00:01:55.091Z,2.30
2019-01-19T00:03:32.095Z,2.32
2019-01-19T00:04:56.060Z,2.27
2019-01-19T00:06:44.065Z,2.26
2019-01-19T00:08:26.008Z,2.27
2019-01-19T00:09:37.664Z,2.22
2019-01-19T00:11:08.061Z,2.15
2019-01-19T00:12:33.113Z,2.15
2019-01-19T00:14:00.519Z,2.15
2019-01-19T00:15:15.821Z,2.12
2019-01-19T00:17:11.324Z,2.11
2019-01-19T00:18:47.200Z,2.11
2019-01-19T00:20:15.009Z,2.08
2019-01-19T00:21:50.464Z,2.10
2019-01-19T00:23:38.900Z,2.12
2019-01-19T00:25:39.479Z,2.13
2019-01-19T00:27:43.093Z,2.11
2019-01-19T00:28:55.621Z,2.08
2019-01-19T00:30:40.101Z,2.05
2019-01-19T00:31:51.608Z,2.06
2019-01-19T00:33:16.852Z,2.07
2019-01-19T00:34:55.129Z,2.07
2019-01-19T00:36:48.101Z,2.04
2019-01-19T00:38:16.440Z,1.99
2019-01-19T00:39:56.029Z,1.97
2019-01-19T00:41:32.441Z,1.98
2019-01-19T00:43:12.960Z,2.00
2019-01-19T00:44:39.183Z,1.99
2019-01-19T00:46:18.979Z,2.01
2019-01-19T00:47:52.284Z,2.01
2019-01-19T00:49:17.143Z,2.01
2019-01-19T00:51:06.484Z,2.00
2019-01-19T00:52:28.899Z,1.99
2019-01-19T00:53:42.863Z,1.98
2019-01-19T00:55:03.800Z,1.98
2019-01-19T00:56:48.076Z,1.98
2019-01-19T00:58:40.903Z,1.98
2019-01-19T00:59:48.459Z,1.97
2019-01-19T01:00:59.803Z,1.95
2019-01-19T01:02:31.250Z,1.94
2019-01-19T01:03:46.104Z,1.95
2019-01-19T01:05:17.406Z,1.92
2019-01-19T01:06:44.357Z,1.91
2019-01-19T01:08:28.467Z,1.90
2019-01-19T01:10:08.541Z,1.90
2019-01-19T01:11:49.791Z,1.89
2019-01-19T01:13:16.323Z,1.88
2019-01-19T01:15:07.207Z,1.87
2019-01-19T01:16:18.803Z,1.85
2019-01-19T01:18:02.380Z,1.82
2019-01-19T01:19:45.291Z,1.81
2019-01-19T01:21:35.704Z,1.80
2019-01-19T01:23:15.979Z,1.76
2019-01-19T01:24:39.380Z,1.68
2019-01-19T01:26:38.427Z,1.66
2019-01-19T01:28:02.594Z,1.64
2019-01-19T01:29:34.459Z,1.58
2019-01-19T01:30:56.071Z,1.57
2019-01-19T01:32:09.489Z,1.53
2019-01-19T01:33:48.932Z,1.53
2019-01-19T01:35:32.773Z,1.53
2019-01-19T01:37:10.733Z,1.51
2019-01-19T01:38:44.344Z,1.49
2019-01-19T01:40:18.059Z,1.50
2019-01-19T01:41:45.596Z,1.45
2019-01-19T01:43:13.846Z,1.41
2019-01-19T01:44:45.042Z,1.40
2019-01-19T01:46:15.293Z,1.36
2019-01-19T01:48:06.323Z,1.32
2019-01-19T01:49:25.620Z,1.28
2019-01-19T01:50:35.360Z,1.28
2019-01-19T01:52:14.041Z,1.29
2019-01-19T01:53:59.009Z,1.30
2019-01-19T01:55:41.936Z,1.29
2019-01-19T01:56:46.161Z,1.21
2019-01-19T01:58:27.119Z,1.15
2019-01-19T02:00:07.255Z,1.18
2019-01-19T02:01:51.660Z,1.18
2019-01-19T02:03:27.414Z,1.11
2019-01-19T02:04:59.321Z,1.09
2019-01-19T02:06:32.545Z,1.11
2019-01-19T02:08:12.407Z,1.09
2019-01-19T02:09:44.978Z,1.10
2019-01-19T02:11:08.211Z,1.11
2019-01-19T02:12:52.094Z,1.11
2019-01-19T02:14:24.019Z,1.13
2019-01-19T02:16:10.444Z,1.11
2019-01-19T02:18:11.244Z,1.11
2019-01-19T02:19:45.003Z,1.09
2019-01-19T02:21:15.431Z,1.05
2019-01-19T02:23:08.952Z,1.03
2019-01-19T02:24:41.560Z,0.88
2019-01-19T02:26:41.854Z,1.03
2019-01-19T02:27:55.141Z,1.06
2019-01-19T02:29:29.311Z,1.05
2019-01-19T02:31:07.879Z,1.05
2019-01-19T02:33:00.369Z,1.04
2019-01-19T02:34:29.871Z,1.04
2019-01-19T02:36:01.815Z,1.01
2019-01-19T02:37:31.318Z,0.99
2019-01-19T02:39:11.987Z,0.98
2019-01-19T02:40:25.128Z,0.98
2019-01-19T02:41:52.330Z,0.96
2019-01-19T02:43:20.889Z,0.95
2019-01-19T02:45:00.884Z,0.93
2019-01-19T02:46:25.579Z,0.93
2019-01-19T02:47:40.848Z,0.89
2019-01-19T02:49:11.855Z,0.89
2019-01-19T02:50:40.778Z,0.87
2019-01-19T02:52:24.916Z,0.87
2019-01-19T02:54:04.022Z,0.86
2019-01-19T02:55:44.990Z,0.86
2019-01-19T02:57:20.914Z,0.85
2019-01-19T02:59:06.842Z,0.85
2019-01-19T03:00:32.834Z,0.85
2019-01-19T03:02:10.327Z,0.83
2019-01-19T03:03:52.279Z,0.82
2019-01-19T03:05:23.839Z,0.76
2019-01-19T03:06:53.977Z,0.68
2019-01-19T03:08:22.044Z,0.68
2019-01-19T03:09:51.596Z,0.65
2019-01-19T03:11:34.700Z,0.66
2019-01-19T03:12:57.107Z,0.64
2019-01-19T03:14:35.823Z,0.60
2019-01-19T03:16:09.386Z,0.58
2019-01-19T03:18:15.967Z,0.57
2019-01-19T03:19:39.445Z,0.58
2019-01-19T03:21:40.980Z,0.52
2019-01-19T03:23:05.279Z,0.52
2019-01-19T03:25:00.376Z,0.44
2019-01-19T03:26:22.756Z,0.44
2019-01-19T03:27:50.031Z,0.39
2019-01-19T03:29:41.054Z,0.38
2019-01-19T03:31:00.824Z,0.37
2019-01-19T03:32:45.324Z,0.34
2019-01-19T03:34:24.280Z,0.35
2019-01-19T03:36:10.368Z,0.32
2019-01-19T03:38:10.319Z,0.31
2019-01-19T03:39:44.195Z,0.30
2019-01-19T03:41:16.570Z,0.28
2019-01-19T03:42:39.930Z,0.29
2019-01-19T03:44:31.439Z,0.27
2019-01-19T03:46:19.578Z,0.27
2019-01-19T03:47:55.744Z,0.24
2019-01-19T03:49:33.447Z,0.27
2019-01-19T03:50:59.599Z,0.28
2019-01-19T03:52:33.776Z,0.30
2019-01-19T03:53:47.476Z,0.32
2019-01-19T03:55:14.715Z,0.30
2019-01-19T03:56:56.815Z,0.30
2019-01-19T03:58:55.994Z,0.29
2019-01-19T04:00:47.217Z,0.28
2019-01-19T04:02:33.696Z,0.21
2019-01-19T04:04:02.121Z,0.19
2019-01-19T04:05:22.981Z,0.18
2019-01-19T04:07:01.314Z,0.19
2019-01-19T04:08:28.756Z,0.20
2019-01-19T04:10:07.606Z,0.22
2019-01-19T04:12:01.707Z,0.24
2019-01-19T04:13:31.833Z,0.29
2019-01-19T04:15:35.074Z,0.32
2019-01-19T04:17:35.563Z,0.36
2019-01-19T04:19:13.651Z,0.35
2019-01-19T04:20:53.131Z,0.35
2019-01-19T04:22:24.547Z,0.34
2019-01-19T04:23:28.470Z,0.35
2019-01-19T04:24:47.852Z,0.36
2019-01-19T04:26:01.124Z,0.34
2019-01-19T04:27:05.281Z,0.35
2019-01-19T04:28:09.344Z,0.36
2019-01-19T04:29:13.200Z,0.36
2019-01-19T04:30:17.689Z,0.35
2019-01-19T04:31:21.676Z,0.36
2019-01-19T04:32:25.948Z,0.37
2019-01-19T04:33:29.892Z,0.38
2019-01-19T04:34:33.980Z,0.39
2019-01-19T04:35:38.240Z,0.38
2019-01-19T04:36:42.555Z,0.39
2019-01-19T04:37:46.646Z,0.40
2019-01-19T04:38:50.770Z,0.38
2019-01-19T04:39:54.779Z,0.39
2019-01-19T04:40:58.836Z,0.38
2019-01-19T04:42:03.215Z,0.37
2019-01-19T04:43:07.204Z,0.37
2019-01-19T04:44:11.501Z,0.37
2019-01-19T04:45:15.617Z,0.37
2019-01-19T04:46:19.542Z,0.36
2019-01-19T04:47:23.540Z,0.37
2019-01-19T04:48:27.519Z,0.36
2019-01-19T04:49:31.472Z,0.38
2019-01-19T04:50:35.461Z,0.38
2019-01-19T04:51:39.385Z,0.40
2019-01-19T04:52:43.377Z,0.38
2019-01-19T04:53:47.904Z,0.40
2019-01-19T04:54:52.092Z,0.38
2019-01-19T04:55:56.016Z,0.37
2019-01-19T04:57:00.305Z,0.37
2019-01-19T04:58:04.225Z,0.35
2019-01-19T04:59:08.259Z,0.36
2019-01-19T05:00:17.781Z,0.36
2019-01-19T05:01:21.831Z,0.35
2019-01-19T05:02:26.096Z,0.34
2019-01-19T05:03:30.529Z,0.33
2019-01-19T05:04:34.457Z,0.34
2019-01-19T05:05:38.305Z,0.34
2019-01-19T05:06:42.585Z,0.32
2019-01-19T05:07:46.504Z,0.32
2019-01-19T05:08:50.714Z,0.32
2019-01-19T05:09:54.643Z,0.32
2019-01-19T05:10:58.918Z,0.32
2019-01-19T05:12:02.903Z,0.32
2019-01-19T05:13:07.144Z,0.33
2019-01-19T05:14:11.832Z,0.31
2019-01-19T05:15:18.468Z,0.31
2019-01-19T05:16:22.467Z,0.29
2019-01-19T05:17:26.665Z,0.26
2019-01-19T05:18:30.996Z,0.24
2019-01-19T05:19:35.244Z,0.22
2019-01-19T05:20:39.508Z,0.21
2019-01-19T05:21:43.947Z,0.21
2019-01-19T05:22:47.952Z,0.21
2019-01-19T05:23:52.202Z,0.23
2019-01-19T05:24:56.132Z,0.22
2019-01-19T05:26:00.349Z,0.27
2019-01-19T05:27:04.393Z,0.26
2019-01-19T05:28:08.314Z,0.22
2019-01-19T05:29:12.312Z,0.22
2019-01-19T05:30:18.386Z,0.20
2019-01-19T05:31:22.666Z,0.15
2019-01-19T05:32:27.165Z,0.09
2019-01-19T05:33:31.011Z,0.08
2019-01-19T05:34:35.580Z,0.07
2019-01-19T05:35:39.564Z,0.05
2019-01-19T05:36:43.488Z,0.04
2019-01-19T05:37:47.472Z,0.06
2019-01-19T05:38:52.106Z,0.13
2019-01-19T05:39:56.299Z,0.06
2019-01-19T05:41:00.236Z,0.01
2019-01-19T05:42:04.226Z,0.01
2019-01-19T05:43:08.157Z,0.02
2019-01-19T05:44:12.144Z,-0.02
2019-01-19T05:45:16.504Z,-0.06
2019-01-19T05:46:21.580Z,-0.08
2019-01-19T05:47:26.160Z,-0.07
2019-01-19T05:48:30.077Z,-0.08
2019-01-19T05:49:34.239Z,-0.06
2019-01-19T05:50:38.182Z,-0.05
2019-01-19T05:51:42.025Z,-0.05
2019-01-19T05:52:45.948Z,-0.05
2019-01-19T05:53:50.037Z,-0.07
2019-01-19T05:54:54.149Z,-0.05
2019-01-19T05:55:58.076Z,-0.05
2019-01-19T05:57:02.001Z,-0.04
2019-01-19T05:58:05.912Z,-0.04
2019-01-19T05:59:09.911Z,-0.05
2019-01-19T06:00:16.652Z,-0.06
2019-01-19T06:01:21.493Z,-0.05
2019-01-19T06:02:26.989Z,-0.04
2019-01-19T06:03:31.153Z,-0.05
2019-01-19T06:04:35.081Z,-0.06
2019-01-19T06:05:40.353Z,-0.07
2019-01-19T06:06:47.057Z,-0.08
2019-01-19T06:07:50.479Z,-0.07
2019-01-19T06:08:54.472Z,-0.08
2019-01-19T06:09:58.574Z,-0.08
2019-01-19T06:11:02.516Z,-0.08
2019-01-19T06:12:06.517Z,-0.08
2019-01-19T06:13:14.000Z,-0.07
2019-01-19T06:14:18.248Z,-0.07
2019-01-19T06:15:23.382Z,-0.07
2019-01-19T06:16:27.315Z,-0.08
2019-01-19T06:17:31.228Z,-0.09
2019-01-19T06:18:35.949Z,-0.09
2019-01-19T06:19:40.017Z,-0.10
2019-01-19T06:20:44.019Z,-0.11
2019-01-19T06:21:55.790Z,-0.13
2019-01-19T06:22:59.805Z,-0.15
2019-01-19T06:24:03.815Z,-0.15
2019-01-19T06:25:08.957Z,-0.15
2019-01-19T06:26:12.970Z,-0.16
2019-01-19T06:27:16.964Z,-0.17
2019-01-19T06:28:21.253Z,-0.16
2019-01-19T06:29:25.504Z,-0.18
2019-01-19T06:30:29.497Z,-0.19
2019-01-19T06:31:33.429Z,-0.19
2019-01-19T06:32:37.431Z,-0.20
2019-01-19T06:33:41.278Z,-0.21
2019-01-19T06:34:45.753Z,-0.21
2019-01-19T06:35:49.770Z,-0.21
2019-01-19T06:36:55.082Z,-0.22
2019-01-19T06:37:59.373Z,-0.21
2019-01-19T06:39:04.081Z,-0.24
2019-01-19T06:40:09.562Z,-0.26
2019-01-19T06:41:13.485Z,-0.28
2019-01-19T06:42:17.762Z,-0.28
2019-01-19T06:43:21.869Z,-0.28
2019-01-19T06:44:26.048Z,-0.28
2019-01-19T06:45:30.052Z,-0.26
2019-01-19T06:46:34.117Z,-0.25
2019-01-19T06:47:38.053Z,-0.25
2019-01-19T06:48:42.050Z,-0.22
2019-01-19T06:49:46.273Z,-0.19
2019-01-19T06:50:50.515Z,-0.18
2019-01-19T06:51:55.068Z,-0.14
2019-01-19T06:52:59.297Z,-0.10
2019-01-19T06:54:03.297Z,-0.04
2019-01-19T06:55:08.337Z,0.00
2019-01-19T06:56:12.484Z,0.06
2019-01-19T06:57:16.880Z,0.10
2019-01-19T06:58:20.843Z,0.17
2019-01-19T06:59:24.800Z,0.23
2019-01-19T07:00:28.924Z,0.26
2019-01-19T07:01:33.278Z,0.31
2019-01-19T07:02:37.208Z,0.35
2019-01-19T07:03:41.181Z,0.40
2019-01-19T07:04:45.344Z,0.48
2019-01-19T07:05:49.320Z,0.50
2019-01-19T07:06:53.379Z,0.56
2019-01-19T07:07:57.505Z,0.59
2019-01-19T07:09:02.074Z,0.61
2019-01-19T07:10:08.977Z,0.65
2019-01-19T07:11:13.311Z,0.66
2019-01-19T07:12:17.658Z,0.67
2019-01-19T07:13:21.644Z,0.65
2019-01-19T07:14:25.763Z,0.59
2019-01-19T07:15:29.892Z,0.57
2019-01-19T07:16:34.175Z,0.55
2019-01-19T07:17:38.179Z,0.51
2019-01-19T07:18:42.793Z,0.49
2019-01-19T07:19:47.144Z,0.46
2019-01-19T07:20:51.715Z,0.44
2019-01-19T07:21:56.137Z,0.46
2019-01-19T07:23:00.413Z,0.46
2019-01-19T07:24:04.743Z,0.47
2019-01-19T07:25:09.447Z,0.48
2019-01-19T07:26:13.676Z,0.49
2019-01-19T07:27:17.773Z,0.50
2019-01-19T07:28:22.240Z,0.51
2019-01-19T07:29:26.486Z,0.50
2019-01-19T07:30:30.487Z,0.49
2019-01-19T07:31:34.548Z,0.50
2019-01-19T07:32:38.470Z,0.48
2019-01-19T07:33:42.425Z,0.46
2019-01-19T07:34:46.697Z,0.43
2019-01-19T07:35:50.684Z,0.41
2019-01-19T07:36:55.011Z,0.38
2019-01-19T07:37:59.012Z,0.35
2019-01-19T07:39:03.323Z,0.32
2019-01-19T07:40:09.056Z,0.30
2019-01-19T07:41:12.973Z,0.28
2019-01-19T07:42:17.016Z,0.28
2019-01-19T07:43:21.264Z,0.25
2019-01-19T07:44:25.192Z,0.24
2019-01-19T07:45:29.108Z,0.21
2019-01-19T07:46:33.442Z,0.17
2019-01-19T07:47:37.604Z,0.16
2019-01-19T07:48:41.711Z,0.18
2019-01-19T07:49:45.566Z,0.22
2019-01-19T07:50:49.547Z,0.14
2019-01-19T07:51:53.782Z,0.13
2019-01-19T07:52:58.272Z,0.12
2019-01-19T07:54:02.214Z,0.07
2019-01-19T07:55:07.278Z,-0.01
2019-01-19T07:56:11.542Z,-0.04
2019-01-19T07:57:15.843Z,-0.07
2019-01-19T07:58:20.952Z,-0.07
2019-01-19T07:59:25.206Z,-0.08
2019-01-19T08:00:30.730Z,-0.05
2019-01-19T08:01:35.223Z,-0.04
2019-01-19T08:02:39.324Z,-0.05
2019-01-19T08:03:43.569Z,-0.04
2019-01-19T08:04:47.821Z,-0.08
2019-01-19T08:05:52.069Z,-0.09
2019-01-19T08:06:56.066Z,-0.10
2019-01-19T08:08:00.064Z,-0.12
2019-01-19T08:09:05.728Z,-0.12
2019-01-19T08:10:11.296Z,-0.09
2019-01-19T08:11:15.577Z,-0.08
2019-01-19T08:12:19.750Z,-0.07
2019-01-19T08:13:23.872Z,-0.06
2019-01-19T08:14:27.721Z,-0.06
2019-01-19T08:15:31.973Z,-0.02
2019-01-19T08:16:35.958Z,0.02
2019-01-19T08:17:40.127Z,-0.02
2019-01-19T08:18:44.048Z,-0.01
2019-01-19T08:19:48.065Z,0.06
2019-01-19T08:20:52.326Z,0.04
2019-01-19T08:21:56.372Z,0.04
2019-01-19T08:23:00.315Z,0.03
2019-01-19T08:24:04.991Z,0.02
2019-01-19T08:25:09.512Z,0.01
2019-01-19T08:26:13.430Z,0.00
2019-01-19T08:27:17.768Z,0.02
2019-01-19T08:28:22.215Z,0.03
2019-01-19T08:29:26.142Z,0.06
2019-01-19T08:30:30.967Z,0.08
2019-01-19T08:31:35.573Z,0.10
2019-01-19T08:32:39.583Z,0.12
2019-01-19T08:33:44.004Z,0.12
2019-01-19T08:34:48.360Z,0.15
2019-01-19T08:35:52.612Z,0.16
2019-01-19T08:36:56.612Z,0.19
2019-01-19T08:38:00.608Z,0.18
2019-01-19T08:39:07.464Z,0.22
2019-01-19T08:40:14.011Z,0.21
2019-01-19T08:41:17.870Z,0.21
2019-01-19T08:42:21.800Z,0.22
2019-01-19T08:43:45.353Z,0.22
2019-01-19T08:44:49.435Z,0.21
2019-01-19T08:45:53.832Z,0.22
2019-01-19T08:46:57.812Z,0.24
2019-01-19T08:48:02.895Z,0.25
2019-01-19T08:49:07.221Z,0.22
2019-01-19T08:50:11.638Z,0.24
2019-01-19T08:51:15.644Z,0.24
2019-01-19T08:52:20.019Z,0.25
2019-01-19T08:53:24.432Z,0.30
2019-01-19T08:54:28.912Z,0.32
2019-01-19T08:55:32.836Z,0.36
2019-01-19T08:56:38.162Z,0.36
2019-01-19T08:57:42.161Z,0.36
2019-01-19T08:58:46.328Z,0.37
2019-01-19T08:59:50.324Z,0.35
2019-01-19T09:00:54.794Z,0.35
2019-01-19T09:01:59.103Z,0.40
2019-01-19T09:03:03.415Z,0.46
2019-01-19T09:04:07.439Z,0.47
2019-01-19T09:05:11.463Z,0.49
2019-01-19T09:06:16.145Z,0.46
2019-01-19T09:07:20.334Z,0.46
2019-01-19T09:08:24.424Z,0.47
2019-01-19T09:09:28.359Z,0.47
2019-01-19T09:10:32.604Z,0.51
2019-01-19T09:11:36.601Z,0.54
2019-01-19T09:12:40.759Z,0.51
2019-01-19T09:13:44.681Z,0.52
2019-01-19T09:14:48.671Z,0.59
2019-01-19T09:15:55.835Z,0.56
2019-01-19T09:16:59.942Z,0.57
2019-01-19T09:18:04.199Z,0.58
2019-01-19T09:19:08.199Z,0.57
2019-01-19T09:20:14.109Z,0.57
2019-01-19T09:21:18.106Z,0.58
2019-01-19T09:22:22.386Z,0.58
2019-01-19T09:23:33.369Z,0.62
2019-01-19T09:24:37.403Z,0.67
2019-01-19T09:25:41.388Z,0.73
2019-01-19T09:26:45.390Z,0.75
2019-01-19T09:27:49.375Z,0.73
2019-01-19T09:28:53.345Z,0.74
2019-01-19T09:29:57.264Z,0.75
2019-01-19T09:31:01.518Z,0.76
2019-01-19T09:32:05.516Z,0.79
2019-01-19T09:33:09.505Z,0.80
2019-01-19T09:34:13.676Z,0.84
2019-01-19T09:35:18.040Z,0.90
2019-01-19T09:36:21.980Z,0.93
2019-01-19T09:37:25.985Z,0.92
2019-01-19T09:38:30.210Z,0.90
2019-01-19T09:39:34.194Z,0.93
2019-01-19T09:40:38.433Z,0.93
2019-01-19T09:41:42.450Z,0.98
2019-01-19T09:42:46.550Z,1.03
2019-01-19T09:43:50.780Z,1.05
2019-01-19T09:44:54.957Z,1.07
2019-01-19T09:45:58.939Z,1.04
2019-01-19T09:47:03.199Z,1.03
2019-01-19T09:48:07.479Z,1.03
2019-01-19T09:49:11.714Z,1.03
2019-01-19T09:50:16.173Z,1.03
2019-01-19T09:51:20.414Z,1.06
2019-01-19T09:52:25.162Z,1.08
2019-01-19T09:53:29.164Z,1.09
2019-01-19T09:54:32.999Z,1.12
2019-01-19T09:55:36.975Z,1.14
2019-01-19T09:56:41.255Z,1.20
2019-01-19T09:57:45.549Z,1.24
2019-01-19T09:58:49.487Z,1.24
2019-01-19T09:59:53.480Z,1.25
2019-01-19T10:00:57.476Z,1.27
2019-01-19T10:02:01.481Z,1.31
2019-01-19T10:03:05.762Z,1.33
2019-01-19T10:04:10.023Z,1.34
2019-01-19T10:05:16.973Z,1.37
2019-01-19T10:06:21.475Z,1.39
2019-01-19T10:07:25.864Z,1.40
2019-01-19T10:08:30.098Z,1.39
2019-01-19T10:09:34.031Z,1.40
2019-01-19T10:10:37.946Z,1.43
2019-01-19T10:11:41.793Z,1.46
2019-01-19T10:12:45.908Z,1.49
2019-01-19T10:13:50.234Z,1.54
2019-01-19T10:14:54.331Z,1.53
2019-01-19T10:15:58.180Z,1.53
2019-01-19T10:17:03.798Z,1.57
2019-01-19T10:18:07.878Z,1.56
2019-01-19T10:19:12.185Z,1.58
2019-01-19T10:20:18.630Z,1.59
2019-01-19T10:21:22.633Z,1.61
2019-01-19T10:22:26.572Z,1.65
2019-01-19T10:23:30.655Z,1.67
2019-01-19T10:24:34.586Z,1.68
2019-01-19T10:25:38.583Z,1.70
2019-01-19T10:26:42.824Z,1.74
2019-01-19T10:27:46.832Z,1.75
2019-01-19T10:28:51.183Z,1.79
2019-01-19T10:29:55.437Z,1.81
2019-01-19T10:30:59.532Z,1.84
2019-01-19T10:32:03.847Z,1.85
2019-01-19T10:33:07.902Z,1.88
2019-01-19T10:34:11.891Z,1.90
2019-01-19T10:35:16.046Z,1.90
2019-01-19T10:36:20.080Z,1.88
2019-01-19T10:37:24.366Z,1.90
2019-01-19T10:38:28.994Z,1.93
2019-01-19T10:39:32.927Z,1.95
2019-01-19T10:40:36.918Z,1.98
2019-01-19T10:41:41.284Z,2.02
2019-01-19T10:42:45.316Z,2.05
2019-01-19T10:43:49.384Z,2.09
2019-01-19T10:44:53.318Z,2.11
2019-01-19T10:45:57.668Z,2.11
2019-01-19T10:47:02.014Z,2.15
2019-01-19T10:48:06.523Z,2.23
2019-01-19T10:49:10.600Z,2.24
2019-01-19T10:50:15.814Z,2.28
2019-01-19T10:51:19.811Z,2.32
2019-01-19T10:52:23.806Z,2.32
2019-01-19T10:53:27.810Z,2.38
2019-01-19T10:54:31.779Z,2.38
2019-01-19T10:55:35.902Z,2.37
2019-01-19T10:56:39.900Z,2.38
2019-01-19T10:57:43.787Z,2.38
2019-01-19T10:58:47.787Z,2.42
2019-01-19T10:59:51.771Z,2.47
2019-01-19T11:00:55.619Z,2.48
2019-01-19T11:01:59.648Z,2.50
2019-01-19T11:03:04.095Z,2.54
2019-01-19T11:04:08.238Z,2.57
2019-01-19T11:05:13.641Z,2.67
2019-01-19T11:06:17.730Z,2.66
2019-01-19T11:07:21.729Z,2.69
2019-01-19T11:08:25.760Z,2.73
2019-01-19T11:09:29.757Z,2.76
2019-01-19T11:10:33.920Z,2.77
2019-01-19T11:11:37.924Z,2.85
2019-01-19T11:12:41.919Z,2.84
2019-01-19T11:13:45.864Z,2.84
2019-01-19T11:14:50.358Z,2.90
2019-01-19T11:15:54.356Z,2.95
2019-01-19T11:16:58.362Z,2.96
2019-01-19T11:18:02.280Z,2.98
2019-01-19T11:19:06.548Z,3.01
2019-01-19T11:20:16.813Z,3.03
2019-01-19T11:21:20.848Z,3.08
2019-01-19T11:22:24.817Z,3.11
2019-01-19T11:23:28.935Z,3.16
2019-01-19T11:24:33.373Z,3.29
2019-01-19T11:25:37.288Z,3.34
2019-01-19T11:26:41.132Z,3.29
2019-01-19T11:27:45.355Z,3.27
2019-01-19T11:28:49.358Z,3.28
2019-01-19T11:29:53.277Z,3.31
2019-01-19T11:30:57.182Z,3.32
2019-01-19T11:32:01.184Z,3.35
2019-01-19T11:33:05.292Z,3.36
2019-01-19T11:34:09.543Z,3.39
2019-01-19T11:35:13.799Z,3.30
2019-01-19T11:36:17.789Z,3.41
2019-01-19T11:37:21.711Z,3.44
2019-01-19T11:38:25.698Z,3.49
2019-01-19T11:39:29.704Z,3.51
2019-01-19T11:40:35.873Z,3.54
2019-01-19T11:41:40.478Z,3.59
2019-01-19T11:42:44.615Z,3.59
2019-01-19T11:43:48.483Z,3.61
2019-01-19T11:44:52.726Z,3.63
2019-01-19T11:45:56.890Z,3.67
2019-01-19T11:47:00.797Z,3.75
2019-01-19T11:48:05.228Z,3.81
2019-01-19T11:49:09.148Z,3.80
2019-01-19T11:50:14.020Z,3.78
2019-01-19T11:51:17.939Z,3.83
2019-01-19T11:52:22.104Z,3.85
2019-01-19T11:53:26.342Z,3.91
2019-01-19T11:54:30.589Z,3.90
2019-01-19T11:55:34.688Z,3.92
2019-01-19T11:56:38.915Z,3.94
2019-01-19T11:57:42.903Z,3.96
2019-01-19T11:58:47.065Z,3.99
2019-01-19T11:59:50.995Z,4.02
2019-01-19T12:00:54.979Z,4.06
2019-01-19T12:01:59.216Z,4.08
2019-01-19T12:03:03.495Z,4.11
2019-01-19T12:04:07.703Z,4.13
2019-01-19T12:05:11.799Z,4.16
2019-01-19T12:06:15.777Z,4.20
2019-01-19T12:07:19.691Z,4.27
2019-01-19T12:08:23.679Z,4.27
2019-01-19T12:09:27.603Z,4.28
2019-01-19T12:10:31.955Z,4.29
2019-01-19T12:11:36.207Z,4.31
2019-01-19T12:12:40.056Z,4.32
2019-01-19T12:13:44.052Z,4.34
2019-01-19T12:14:48.316Z,4.34
2019-01-19T12:15:52.517Z,4.35
2019-01-19T12:16:56.428Z,4.38
2019-01-19T12:18:00.351Z,4.42
2019-01-19T12:19:04.347Z,4.43
2019-01-19T12:20:13.028Z,4.45
2019-01-19T12:21:17.070Z,4.47
2019-01-19T12:22:21.131Z,4.47
2019-01-19T12:23:25.699Z,4.50
2019-01-19T12:24:29.851Z,4.52
2019-01-19T12:25:34.156Z,4.53
2019-01-19T12:26:38.167Z,4.57
2019-01-19T12:27:42.299Z,4.59
2019-01-19T12:28:46.215Z,4.62
2019-01-19T12:29:50.214Z,4.64
2019-01-19T12:30:55.162Z,4.67
2019-01-19T12:31:59.135Z,4.69
2019-01-19T12:33:03.469Z,4.72
2019-01-19T12:34:07.466Z,4.69
2019-01-19T12:35:11.625Z,4.68
2019-01-19T12:36:15.948Z,4.70
2019-01-19T12:37:19.867Z,4.71
2019-01-19T12:38:27.056Z,4.71
2019-01-19T12:39:30.045Z,4.71
2019-01-19T12:40:34.367Z,4.75
2019-01-19T12:41:38.674Z,4.75
2019-01-19T12:42:43.328Z,4.71
2019-01-19T12:43:47.520Z,4.73
2019-01-19T12:44:51.823Z,4.74
2019-01-19T12:46:01.583Z,4.76
2019-01-19T12:47:05.648Z,4.78
2019-01-19T12:48:11.747Z,4.78
2019-01-19T12:49:15.797Z,4.79
2019-01-19T12:50:22.389Z,4.80
2019-01-19T12:51:26.403Z,4.81
2019-01-19T12:52:30.770Z,4.84
2019-01-19T12:53:34.844Z,4.83
2019-01-19T12:54:39.301Z,4.85
2019-01-19T12:55:43.328Z,4.84
2019-01-19T12:56:47.344Z,4.85
2019-01-19T12:57:51.460Z,4.86
2019-01-19T12:58:56.103Z,4.86
2019-01-19T13:00:00.022Z,4.88
2019-01-19T13:01:04.939Z,4.89
2019-01-19T13:02:08.927Z,4.91
2019-01-19T13:03:12.922Z,4.94
2019-01-19T13:04:17.335Z,4.96
2019-01-19T13:05:28.428Z,4.97
2019-01-19T13:06:56.998Z,5.01
2019-01-19T13:08:01.049Z,5.03
2019-01-19T13:09:17.082Z,5.00
2019-01-19T13:10:28.866Z,4.98
2019-01-19T13:12:10.070Z,4.98
2019-01-19T13:13:20.086Z,4.99
2019-01-19T13:14:24.391Z,4.98
2019-01-19T13:16:15.899Z,4.98
2019-01-19T13:17:44.099Z,4.98
2019-01-19T13:19:24.730Z,5.00
2019-01-19T13:21:21.030Z,5.02
2019-01-19T13:22:41.529Z,5.01
2019-01-19T13:24:13.401Z,4.96
2019-01-19T13:26:06.546Z,4.95
2019-01-19T13:27:48.225Z,4.96
2019-01-19T13:29:38.635Z,4.90
2019-01-19T13:31:26.842Z,4.90
2019-01-19T13:33:10.930Z,4.85
2019-01-19T13:35:02.011Z,4.86
2019-01-19T13:36:48.816Z,4.88
2019-01-19T13:38:24.065Z,4.83
2019-01-19T13:39:41.979Z,4.79
2019-01-19T13:41:42.118Z,4.78
2019-01-19T13:43:25.126Z,4.78
2019-01-19T13:44:51.828Z,4.73
2019-01-19T13:46:06.393Z,4.72
2019-01-19T13:47:46.532Z,4.73
2019-01-19T13:49:28.004Z,4.72
2019-01-19T13:51:03.357Z,4.74
2019-01-19T13:52:38.003Z,4.72
2019-01-19T13:54:23.122Z,4.69
2019-01-19T13:56:05.036Z,4.72
2019-01-19T13:57:33.711Z,4.73
2019-01-19T13:59:14.535Z,4.77
2019-01-19T14:01:00.478Z,4.76
2019-01-19T14:02:42.679Z,4.75
2019-01-19T14:04:20.416Z,4.70
2019-01-19T14:05:39.483Z,4.71
2019-01-19T14:07:22.398Z,4.68
2019-01-19T14:08:55.415Z,4.68
2019-01-19T14:10:32.147Z,4.71
2019-01-19T14:12:13.424Z,4.69
2019-01-19T14:14:00.077Z,4.68
2019-01-19T14:15:31.707Z,4.66
2019-01-19T14:17:00.913Z,4.66
2019-01-19T14:18:41.236Z,4.67
2019-01-19T14:20:02.439Z,4.71
2019-01-19T14:22:14.599Z,4.66
2019-01-19T14:23:34.011Z,4.70
2019-01-19T14:24:49.257Z,4.74
2019-01-19T14:26:35.192Z,4.76
2019-01-19T14:28:12.638Z,4.78
2019-01-19T14:29:57.631Z,4.78
2019-01-19T14:31:36.553Z,4.81
2019-01-19T14:33:11.630Z,4.82
2019-01-19T14:34:43.535Z,4.82
2019-01-19T14:36:24.297Z,4.82
2019-01-19T14:38:03.774Z,4.82
2019-01-19T14:39:57.945Z,4.81
2019-01-19T14:41:56.910Z,4.82
2019-01-19T14:43:37.661Z,4.80
2019-01-19T14:45:02.262Z,4.79
2019-01-19T14:46:46.531Z,4.77
2019-01-19T14:48:28.725Z,4.77
2019-01-19T14:50:09.071Z,4.76
2019-01-19T14:51:29.855Z,4.75
2019-01-19T14:53:13.656Z,4.86
2019-01-19T14:54:53.588Z,4.76
2019-01-19T14:56:41.531Z,4.74
2019-01-19T14:58:13.472Z,4.63
2019-01-19T14:59:42.866Z,4.61
2019-01-19T15:01:15.565Z,4.63
2019-01-19T15:02:45.022Z,4.59
2019-01-19T15:04:36.634Z,4.55
2019-01-19T15:05:51.318Z,4.60
2019-01-19T15:07:32.870Z,4.59
2019-01-19T15:09:14.058Z,4.60
2019-01-19T15:10:56.362Z,4.59
2019-01-19T15:12:37.239Z,4.52
2019-01-19T15:14:31.691Z,4.53
2019-01-19T15:16:44.521Z,4.51
2019-01-19T15:18:13.311Z,4.54
2019-01-19T15:20:00.019Z,4.43
2019-01-19T15:21:43.912Z,4.40
2019-01-19T15:23:17.802Z,4.33
2019-01-19T15:24:41.619Z,4.31
2019-01-19T15:26:36.388Z,4.29
2019-01-19T15:28:06.931Z,4.30
2019-01-19T15:29:53.015Z,4.36
2019-01-19T15:31:21.094Z,4.33
2019-01-19T15:33:17.827Z,4.23
2019-01-19T15:34:57.626Z,4.17
2019-01-19T15:36:30.231Z,4.13
2019-01-19T15:37:58.679Z,4.09
2019-01-19T15:39:24.288Z,4.09
2019-01-19T15:41:05.574Z,4.14
2019-01-19T15:42:41.814Z,4.19
2019-01-19T15:44:31.823Z,4.16
2019-01-19T15:46:22.236Z,4.18
2019-01-19T15:48:01.346Z,4.04
2019-01-19T15:49:37.814Z,4.00
2019-01-19T15:51:31.848Z,4.00
2019-01-19T15:52:50.232Z,3.91
2019-01-19T15:54:30.153Z,3.86
2019-01-19T15:56:20.529Z,3.85
2019-01-19T15:57:46.136Z,3.85
2019-01-19T15:59:33.755Z,3.77
2019-01-19T16:01:22.552Z,3.76
2019-01-19T16:02:54.803Z,3.77
2019-01-19T16:04:23.299Z,3.73
2019-01-19T16:06:09.215Z,3.69
2019-01-19T16:08:00.726Z,3.67
2019-01-19T16:09:41.871Z,3.64
2019-01-19T16:11:42.388Z,3.61
2019-01-19T16:13:01.299Z,3.58
2019-01-19T16:14:33.483Z,3.55
2019-01-19T16:16:05.028Z,3.58
2019-01-19T16:17:44.567Z,3.55
2019-01-19T16:19:17.032Z,3.55
2019-01-19T16:20:59.436Z,3.48
2019-01-19T16:22:17.134Z,3.46
2019-01-19T16:23:43.230Z,3.41
2019-01-19T16:25:05.292Z,3.42
2019-01-19T16:26:37.522Z,3.41
2019-01-19T16:28:13.264Z,3.43
2019-01-19T16:29:50.832Z,3.42
2019-01-19T16:31:28.688Z,3.45
2019-01-19T16:33:04.783Z,3.38
2019-01-19T16:34:32.133Z,3.37
2019-01-19T16:36:00.255Z,3.39
2019-01-19T16:37:23.159Z,3.42
2019-01-19T16:38:54.112Z,3.43
2019-01-19T16:40:35.243Z,3.43
2019-01-19T16:42:11.015Z,3.41
2019-01-19T16:43:38.892Z,3.41
2019-01-19T16:45:32.726Z,3.40
2019-01-19T16:47:22.301Z,3.39
2019-01-19T16:48:37.063Z,3.38
2019-01-19T16:50:19.232Z,3.36
2019-01-19T16:52:03.375Z,3.35
2019-01-19T16:53:48.905Z,3.35
2019-01-19T16:55:16.202Z,3.33
2019-01-19T16:56:38.139Z,3.32